Cape Peony — 3FDX6 — position and weather

sailwx.info

Track history (hours):
 
Tides and Currents Weather Stations Pressure Air Temp Water Temp Dewpoint Dewpoint Depression Visibility Wind Speed Wind Dir Waves Ship Positions

Cape Peony

Last reported at 2017-Jan-16 07:33 UTC. Time now 2017-Jan-19 23:34 UTC.
Position N 30°59' E 122°30'.

Length 292 m; draft 6.1 m.

Type: Cargo ship. MMSI: 373590000.

Date/timePositionNaut miles runAvg speedWind from/ knotsBaromVisibWave heightAir tempDewpointWater temp
2017-Jan-16 07:33N 30°59' E 122°30'1212.1
2017-Jan-16 06:33N 31°02' E 122°17'1110.6
2017-Jan-16 05:33N 31°04' E 122°05'10 9.6
2017-Jan-16 04:33N 31°08' E 121°54'1212.1
2017-Jan-16 03:33N 31°17' E 121°45'1211.5
2017-Jan-16 02:33N 31°24' E 121°34'9 9.3
2017-Jan-16 01:33N 31°31' E 121°27'8 7.8
2017-Jan-16 00:33N 31°30' E 121°36'4 4.5
2017-Jan-15 23:33N 31°33' E 121°32'3 3.2
2017-Jan-15 22:33N 31°34' E 121°29'0 0.1
2017-Jan-15 21:33N 31°34' E 121°28'0 0.2
2017-Jan-15 20:33N 31°34' E 121°28'0 0.1
2017-Jan-15 19:33N 31°34' E 121°28'0 0.0
2017-Jan-15 18:33N 31°34' E 121°28'0 0.0
2017-Jan-15 17:33N 31°34' E 121°28'0 0.0
2017-Jan-15 16:33N 31°34' E 121°28'0 0.3
2017-Jan-15 15:33N 31°34' E 121°29'0 0.0
2017-Jan-15 14:33N 31°34' E 121°29'0 0.1
2017-Jan-15 13:33N 31°34' E 121°29'0 0.0
2017-Jan-15 12:33N 31°34' E 121°29'0 0.0
2017-Jan-15 11:33N 31°34' E 121°29'0 0.1
2017-Jan-15 10:33N 31°34' E 121°29'0 0.1
2017-Jan-15 09:33N 31°34' E 121°29'0 0.2
2017-Jan-15 08:33N 31°34' E 121°28'0 0.2
2017-Jan-15 07:33N 31°34' E 121°28'2 2.1
2017-Jan-15 06:33N 31°34' E 121°30'3 2.9
2017-Jan-15 05:33N 31°35' E 121°28'0 0.0
2017-Jan-15 04:33N 31°35' E 121°28'0 0.0
2017-Jan-15 03:34N 31°35' E 121°28'0 0.0
2017-Jan-15 02:33N 31°35' E 121°28'0 0.0
2017-Jan-15 01:33N 31°35' E 121°28'0 0.0
2017-Jan-15 00:34N 31°35' E 121°28'0 0.0
2017-Jan-14 23:33N 31°35' E 121°28'0 0.0
2017-Jan-14 22:34N 31°35' E 121°28'0 0.0
2017-Jan-14 21:34N 31°35' E 121°28'0 0.0
2017-Jan-14 20:34N 31°35' E 121°28'0 0.0
2017-Jan-14 19:33N 31°35' E 121°28'0 0.0
2017-Jan-14 18:34N 31°35' E 121°28'0 0.0
2017-Jan-14 17:34N 31°35' E 121°28'0 0.0
2017-Jan-14 16:33N 31°35' E 121°28'0 0.0
2017-Jan-14 15:34N 31°35' E 121°28'0 0.0
2017-Jan-14 14:33N 31°35' E 121°28'0 0.0
2017-Jan-14 13:34N 31°35' E 121°28'0 0.0
2017-Jan-14 12:34N 31°35' E 121°28'0 0.0
2017-Jan-14 11:34N 31°35' E 121°28'0 0.0
2017-Jan-14 10:33N 31°35' E 121°28'0 0.0
2017-Jan-14 09:34N 31°35' E 121°28'0 0.0
2017-Jan-14 08:33N 31°35' E 121°28'0 0.0
2017-Jan-14 07:34N 31°35' E 121°28'0 0.0
2017-Jan-14 06:33N 31°35' E 121°28'0 0.0
2017-Jan-14 05:33N 31°35' E 121°28'0 0.0
2017-Jan-14 04:34N 31°35' E 121°28'0 0.0
2017-Jan-14 03:34N 31°35' E 121°28'0 0.0
2017-Jan-13 23:34N 31°35' E 121°28'0 0.0
2017-Jan-13 22:33N 31°35' E 121°28'  
2017-Jan-11 01:33N 31°35' E 121°28'0 0.0
2017-Jan-11 00:33N 31°35' E 121°28'0 0.0
2017-Jan-10 23:33N 31°35' E 121°28'0 0.0
2017-Jan-10 22:33N 31°35' E 121°28'0 0.0
2017-Jan-10 21:33N 31°35' E 121°28'0 0.0
2017-Jan-10 20:33N 31°35' E 121°28'0 0.0
2017-Jan-10 19:33N 31°35' E 121°28'0 0.0
2017-Jan-10 18:33N 31°35' E 121°28'0 0.0
2017-Jan-10 17:33N 31°35' E 121°28'0 0.0
2017-Jan-10 16:33N 31°35' E 121°28'0 0.0
2017-Jan-10 15:33N 31°35' E 121°28'0 0.0
2017-Jan-10 14:33N 31°35' E 121°28'0 0.1
2017-Jan-10 13:34N 31°35' E 121°28'0 0.2
2017-Jan-10 12:33N 31°35' E 121°28'0 0.0
2017-Jan-10 11:33N 31°35' E 121°28'0 0.0
2017-Jan-10 09:13N 31°35' E 121°28'0 0.0
2017-Jan-10 08:33N 31°35' E 121°28'0 0.0
2017-Jan-10 07:33N 31°35' E 121°28'0 0.0
2017-Jan-10 06:33N 31°35' E 121°28'0 0.0
2017-Jan-10 05:33N 31°35' E 121°28'0 0.0
2017-Jan-10 04:33N 31°35' E 121°28'0 0.0
2017-Jan-10 03:33N 31°35' E 121°28'0 0.0
2017-Jan-10 02:33N 31°35' E 121°28'0 0.0
2017-Jan-10 01:33N 31°35' E 121°28'0 0.0
2017-Jan-10 00:33N 31°35' E 121°28'0 0.0
2017-Jan-09 23:33N 31°35' E 121°28'0 0.0
2017-Jan-09 22:33N 31°35' E 121°28'0 0.0
2017-Jan-09 21:33N 31°35' E 121°28'0 0.0
2017-Jan-09 20:33N 31°35' E 121°28'0 0.0
2017-Jan-09 19:33N 31°35' E 121°28'0 0.0
2017-Jan-09 18:33N 31°35' E 121°28'0 0.0
2017-Jan-09 17:33N 31°35' E 121°28'0 0.0
2017-Jan-09 16:33N 31°35' E 121°28'0 0.0
2017-Jan-09 15:33N 31°35' E 121°28'0 0.0
2017-Jan-09 14:33N 31°35' E 121°28'0 0.0
2017-Jan-09 13:33N 31°35' E 121°28'0 0.0
2017-Jan-09 12:33N 31°35' E 121°28'0 0.0
2017-Jan-09 11:33N 31°35' E 121°28'0 0.0
2017-Jan-09 10:33N 31°35' E 121°28'0 0.0
2017-Jan-09 09:33N 31°35' E 121°28'0 0.0
2017-Jan-09 08:33N 31°35' E 121°28'0 0.0
2017-Jan-09 07:33N 31°35' E 121°28'0 0.0
2017-Jan-09 06:33N 31°35' E 121°28'0 0.0
2017-Jan-09 05:33N 31°35' E 121°28'0 0.0
2017-Jan-09 04:33N 31°35' E 121°28'0 0.0
2017-Jan-09 03:33N 31°35' E 121°28'0 0.0
2017-Jan-09 02:33N 31°35' E 121°28'0 0.0
2017-Jan-09 01:33N 31°35' E 121°28'0 0.0
2017-Jan-09 00:33N 31°35' E 121°28'0 0.0
2017-Jan-08 23:33N 31°35' E 121°28'0 0.0
2017-Jan-08 22:33N 31°35' E 121°28'0 0.0
2017-Jan-08 21:33N 31°35' E 121°28'0 0.0
2017-Jan-08 20:33N 31°35' E 121°28'0 0.0
2017-Jan-08 19:33N 31°35' E 121°28'0 0.0
2017-Jan-08 18:33N 31°35' E 121°28'0 0.0
2017-Jan-08 17:33N 31°35' E 121°28'0 0.0
2017-Jan-08 16:33N 31°35' E 121°28'0 0.0
2017-Jan-08 15:33N 31°35' E 121°28'0 0.0
2017-Jan-08 14:33N 31°35' E 121°28'0 0.0
2017-Jan-08 13:33N 31°35' E 121°28'0 0.0
2017-Jan-08 12:33N 31°35' E 121°28'0 0.0
2017-Jan-08 11:33N 31°35' E 121°28'0 0.0
2017-Jan-08 10:33N 31°35' E 121°28'0 0.0
2017-Jan-08 09:33N 31°35' E 121°28'0 0.0
2017-Jan-08 08:33N 31°35' E 121°28'0 0.0
2017-Jan-08 07:33N 31°35' E 121°28'0 0.0
2017-Jan-08 06:33N 31°35' E 121°28'0 0.0
2017-Jan-08 05:33N 31°35' E 121°28'0 0.0
2017-Jan-08 04:33N 31°35' E 121°28'0 0.0
2017-Jan-08 03:33N 31°35' E 121°28'0 0.0
2017-Jan-08 02:33N 31°35' E 121°28'0 0.0
2017-Jan-08 01:33N 31°35' E 121°28'0 0.0
2017-Jan-08 00:33N 31°35' E 121°28'0 0.0
2017-Jan-07 23:33N 31°35' E 121°28'0 0.0
2017-Jan-07 22:33N 31°35' E 121°28'0 0.0
2017-Jan-07 21:33N 31°35' E 121°28'0 0.0
2017-Jan-07 20:33N 31°35' E 121°28'0 0.0
2017-Jan-07 19:33N 31°35' E 121°28'0 0.0
2017-Jan-07 18:33N 31°35' E 121°28'0 0.0
2017-Jan-07 17:33N 31°35' E 121°28'0 0.0
2017-Jan-07 16:33N 31°35' E 121°28'0 0.0
2017-Jan-07 15:33N 31°35' E 121°28'0 0.0
2017-Jan-07 14:33N 31°35' E 121°28'0 0.0
2017-Jan-07 13:33N 31°35' E 121°28'0 0.0
2017-Jan-07 12:33N 31°35' E 121°28'0 0.0
2017-Jan-07 11:33N 31°35' E 121°28'0 0.0
2017-Jan-07 10:33N 31°35' E 121°28'0 0.0
2017-Jan-07 09:33N 31°35' E 121°28'0 0.0
2017-Jan-07 08:33N 31°35' E 121°28'0 0.0
2017-Jan-07 07:33N 31°35' E 121°28'0 0.0
2017-Jan-07 06:33N 31°35' E 121°28'0 0.0
2017-Jan-07 05:33N 31°35' E 121°28'0 0.0
2017-Jan-07 04:33N 31°35' E 121°28'0 0.0
2017-Jan-07 03:33N 31°35' E 121°28'0 0.0
2017-Jan-07 02:33N 31°35' E 121°28'0 0.0
2017-Jan-07 01:33N 31°35' E 121°28'0 0.0
2017-Jan-07 00:33N 31°35' E 121°28'0 0.0
2017-Jan-06 23:33N 31°35' E 121°28'0 0.0
2017-Jan-06 22:33N 31°35' E 121°28'0 0.0
2017-Jan-06 21:33N 31°35' E 121°28'0 0.0
2017-Jan-06 20:33N 31°35' E 121°28'0 0.0
2017-Jan-06 19:33N 31°35' E 121°28'0 0.0
2017-Jan-06 18:33N 31°35' E 121°28'0 0.0
2017-Jan-06 17:33N 31°35' E 121°28'0 0.0
2017-Jan-06 16:33N 31°35' E 121°28'0 0.0
2017-Jan-06 15:33N 31°35' E 121°28'0 0.0
2017-Jan-06 14:33N 31°35' E 121°28'0 0.0
2017-Jan-06 13:33N 31°35' E 121°28'0 0.0
2017-Jan-06 12:33N 31°35' E 121°28'0 0.0
2017-Jan-06 11:33N 31°35' E 121°28'0 0.0
2017-Jan-06 10:33N 31°35' E 121°28'0 0.0
2017-Jan-06 09:33N 31°35' E 121°28'0 0.0
2017-Jan-06 08:33N 31°35' E 121°28'  
Track history (hours):
 
Tides and Currents Weather Stations Pressure Air Temp Water Temp Dewpoint Dewpoint Depression Visibility Wind Speed Wind Dir Waves Ship Positions

Cape Peony

Last reported at 2017-Jan-16 07:33 UTC. Time now 2017-Jan-19 23:34 UTC.
Position N 30°59' E 122°30'.

Length 292 m; draft 6.1 m.

Type: Cargo ship. MMSI: 373590000.

Date/timePositionNaut miles runAvg speedWind from/ knotsBaromVisibWave heightAir tempDewpointWater temp
2017-Jan-16 07:33N 30°59' E 122°30'1212.1
2017-Jan-16 06:33N 31°02' E 122°17'1110.6
2017-Jan-16 05:33N 31°04' E 122°05'10 9.6
2017-Jan-16 04:33N 31°08' E 121°54'1212.1
2017-Jan-16 03:33N 31°17' E 121°45'1211.5
2017-Jan-16 02:33N 31°24' E 121°34'9 9.3
2017-Jan-16 01:33N 31°31' E 121°27'8 7.8
2017-Jan-16 00:33N 31°30' E 121°36'4 4.5
2017-Jan-15 23:33N 31°33' E 121°32'3 3.2
2017-Jan-15 22:33N 31°34' E 121°29'0 0.1
2017-Jan-15 21:33N 31°34' E 121°28'0 0.2
2017-Jan-15 20:33N 31°34' E 121°28'0 0.1
2017-Jan-15 19:33N 31°34' E 121°28'0 0.0
2017-Jan-15 18:33N 31°34' E 121°28'0 0.0
2017-Jan-15 17:33N 31°34' E 121°28'0 0.0
2017-Jan-15 16:33N 31°34' E 121°28'0 0.3
2017-Jan-15 15:33N 31°34' E 121°29'0 0.0
2017-Jan-15 14:33N 31°34' E 121°29'0 0.1
2017-Jan-15 13:33N 31°34' E 121°29'0 0.0
2017-Jan-15 12:33N 31°34' E 121°29'0 0.0
2017-Jan-15 11:33N 31°34' E 121°29'0 0.1
2017-Jan-15 10:33N 31°34' E 121°29'0 0.1
2017-Jan-15 09:33N 31°34' E 121°29'0 0.2
2017-Jan-15 08:33N 31°34' E 121°28'0 0.2
2017-Jan-15 07:33N 31°34' E 121°28'2 2.1
2017-Jan-15 06:33N 31°34' E 121°30'3 2.9
2017-Jan-15 05:33N 31°35' E 121°28'0 0.0
2017-Jan-15 04:33N 31°35' E 121°28'0 0.0
2017-Jan-15 03:34N 31°35' E 121°28'0 0.0
2017-Jan-15 02:33N 31°35' E 121°28'0 0.0
2017-Jan-15 01:33N 31°35' E 121°28'0 0.0
2017-Jan-15 00:34N 31°35' E 121°28'0 0.0
2017-Jan-14 23:33N 31°35' E 121°28'0 0.0
2017-Jan-14 22:34N 31°35' E 121°28'0 0.0
2017-Jan-14 21:34N 31°35' E 121°28'0 0.0
2017-Jan-14 20:34N 31°35' E 121°28'0 0.0
2017-Jan-14 19:33N 31°35' E 121°28'0 0.0
2017-Jan-14 18:34N 31°35' E 121°28'0 0.0
2017-Jan-14 17:34N 31°35' E 121°28'0 0.0
2017-Jan-14 16:33N 31°35' E 121°28'0 0.0
2017-Jan-14 15:34N 31°35' E 121°28'0 0.0
2017-Jan-14 14:33N 31°35' E 121°28'0 0.0
2017-Jan-14 13:34N 31°35' E 121°28'0 0.0
2017-Jan-14 12:34N 31°35' E 121°28'0 0.0
2017-Jan-14 11:34N 31°35' E 121°28'0 0.0
2017-Jan-14 10:33N 31°35' E 121°28'0 0.0
2017-Jan-14 09:34N 31°35' E 121°28'0 0.0
2017-Jan-14 08:33N 31°35' E 121°28'0 0.0
2017-Jan-14 07:34N 31°35' E 121°28'0 0.0
2017-Jan-14 06:33N 31°35' E 121°28'0 0.0
2017-Jan-14 05:33N 31°35' E 121°28'0 0.0
2017-Jan-14 04:34N 31°35' E 121°28'0 0.0
2017-Jan-14 03:34N 31°35' E 121°28'0 0.0
2017-Jan-13 23:34N 31°35' E 121°28'0 0.0
2017-Jan-13 22:33N 31°35' E 121°28'  
2017-Jan-11 01:33N 31°35' E 121°28'0 0.0
2017-Jan-11 00:33N 31°35' E 121°28'0 0.0
2017-Jan-10 23:33N 31°35' E 121°28'0 0.0
2017-Jan-10 22:33N 31°35' E 121°28'0 0.0
2017-Jan-10 21:33N 31°35' E 121°28'0 0.0
2017-Jan-10 20:33N 31°35' E 121°28'0 0.0
2017-Jan-10 19:33N 31°35' E 121°28'0 0.0
2017-Jan-10 18:33N 31°35' E 121°28'0 0.0
2017-Jan-10 17:33N 31°35' E 121°28'0 0.0
2017-Jan-10 16:33N 31°35' E 121°28'0 0.0
2017-Jan-10 15:33N 31°35' E 121°28'0 0.0
2017-Jan-10 14:33N 31°35' E 121°28'0 0.1
2017-Jan-10 13:34N 31°35' E 121°28'0 0.2
2017-Jan-10 12:33N 31°35' E 121°28'0 0.0
2017-Jan-10 11:33N 31°35' E 121°28'0 0.0
2017-Jan-10 09:13N 31°35' E 121°28'0 0.0
2017-Jan-10 08:33N 31°35' E 121°28'0 0.0
2017-Jan-10 07:33N 31°35' E 121°28'0 0.0
2017-Jan-10 06:33N 31°35' E 121°28'0 0.0
2017-Jan-10 05:33N 31°35' E 121°28'0 0.0
2017-Jan-10 04:33N 31°35' E 121°28'0 0.0
2017-Jan-10 03:33N 31°35' E 121°28'0 0.0
2017-Jan-10 02:33N 31°35' E 121°28'0 0.0
2017-Jan-10 01:33N 31°35' E 121°28'0 0.0
2017-Jan-10 00:33N 31°35' E 121°28'0 0.0
2017-Jan-09 23:33N 31°35' E 121°28'0 0.0
2017-Jan-09 22:33N 31°35' E 121°28'0 0.0
2017-Jan-09 21:33N 31°35' E 121°28'0 0.0
2017-Jan-09 20:33N 31°35' E 121°28'0 0.0
2017-Jan-09 19:33N 31°35' E 121°28'0 0.0
2017-Jan-09 18:33N 31°35' E 121°28'0 0.0
2017-Jan-09 17:33N 31°35' E 121°28'0 0.0
2017-Jan-09 16:33N 31°35' E 121°28'0 0.0
2017-Jan-09 15:33N 31°35' E 121°28'0 0.0
2017-Jan-09 14:33N 31°35' E 121°28'0 0.0
2017-Jan-09 13:33N 31°35' E 121°28'0 0.0
2017-Jan-09 12:33N 31°35' E 121°28'0 0.0
2017-Jan-09 11:33N 31°35' E 121°28'0 0.0
2017-Jan-09 10:33N 31°35' E 121°28'0 0.0
2017-Jan-09 09:33N 31°35' E 121°28'0 0.0
2017-Jan-09 08:33N 31°35' E 121°28'0 0.0
2017-Jan-09 07:33N 31°35' E 121°28'0 0.0
2017-Jan-09 06:33N 31°35' E 121°28'0 0.0
2017-Jan-09 05:33N 31°35' E 121°28'0 0.0
2017-Jan-09 04:33N 31°35' E 121°28'0 0.0
2017-Jan-09 03:33N 31°35' E 121°28'0 0.0
2017-Jan-09 02:33N 31°35' E 121°28'0 0.0
2017-Jan-09 01:33N 31°35' E 121°28'0 0.0
2017-Jan-09 00:33N 31°35' E 121°28'0 0.0
2017-Jan-08 23:33N 31°35' E 121°28'0 0.0
2017-Jan-08 22:33N 31°35' E 121°28'0 0.0
2017-Jan-08 21:33N 31°35' E 121°28'0 0.0
2017-Jan-08 20:33N 31°35' E 121°28'0 0.0
2017-Jan-08 19:33N 31°35' E 121°28'0 0.0
2017-Jan-08 18:33N 31°35' E 121°28'0 0.0
2017-Jan-08 17:33N 31°35' E 121°28'0 0.0
2017-Jan-08 16:33N 31°35' E 121°28'0 0.0
2017-Jan-08 15:33N 31°35' E 121°28'0 0.0
2017-Jan-08 14:33N 31°35' E 121°28'0 0.0
2017-Jan-08 13:33N 31°35' E 121°28'0 0.0
2017-Jan-08 12:33N 31°35' E 121°28'0 0.0
2017-Jan-08 11:33N 31°35' E 121°28'0 0.0
2017-Jan-08 10:33N 31°35' E 121°28'0 0.0
2017-Jan-08 09:33N 31°35' E 121°28'0 0.0
2017-Jan-08 08:33N 31°35' E 121°28'0 0.0
2017-Jan-08 07:33N 31°35' E 121°28'0 0.0
2017-Jan-08 06:33N 31°35' E 121°28'0 0.0
2017-Jan-08 05:33N 31°35' E 121°28'0 0.0
2017-Jan-08 04:33N 31°35' E 121°28'0 0.0
2017-Jan-08 03:33N 31°35' E 121°28'0 0.0
2017-Jan-08 02:33N 31°35' E 121°28'0 0.0
2017-Jan-08 01:33N 31°35' E 121°28'0 0.0
2017-Jan-08 00:33N 31°35' E 121°28'0 0.0
2017-Jan-07 23:33N 31°35' E 121°28'0 0.0
2017-Jan-07 22:33N 31°35' E 121°28'0 0.0
2017-Jan-07 21:33N 31°35' E 121°28'0 0.0
2017-Jan-07 20:33N 31°35' E 121°28'0 0.0
2017-Jan-07 19:33N 31°35' E 121°28'0 0.0
2017-Jan-07 18:33N 31°35' E 121°28'0 0.0
2017-Jan-07 17:33N 31°35' E 121°28'0 0.0
2017-Jan-07 16:33N 31°35' E 121°28'0 0.0
2017-Jan-07 15:33N 31°35' E 121°28'0 0.0
2017-Jan-07 14:33N 31°35' E 121°28'0 0.0
2017-Jan-07 13:33N 31°35' E 121°28'0 0.0
2017-Jan-07 12:33N 31°35' E 121°28'0 0.0
2017-Jan-07 11:33N 31°35' E 121°28'0 0.0
2017-Jan-07 10:33N 31°35' E 121°28'0 0.0
2017-Jan-07 09:33N 31°35' E 121°28'0 0.0
2017-Jan-07 08:33N 31°35' E 121°28'0 0.0
2017-Jan-07 07:33N 31°35' E 121°28'0 0.0
2017-Jan-07 06:33N 31°35' E 121°28'0 0.0
2017-Jan-07 05:33N 31°35' E 121°28'0 0.0
2017-Jan-07 04:33N 31°35' E 121°28'0 0.0
2017-Jan-07 03:33N 31°35' E 121°28'0 0.0
2017-Jan-07 02:33N 31°35' E 121°28'0 0.0
2017-Jan-07 01:33N 31°35' E 121°28'0 0.0
2017-Jan-07 00:33N 31°35' E 121°28'0 0.0
2017-Jan-06 23:33N 31°35' E 121°28'0 0.0
2017-Jan-06 22:33N 31°35' E 121°28'0 0.0
2017-Jan-06 21:33N 31°35' E 121°28'0 0.0
2017-Jan-06 20:33N 31°35' E 121°28'0 0.0
2017-Jan-06 19:33N 31°35' E 121°28'0 0.0
2017-Jan-06 18:33N 31°35' E 121°28'0 0.0
2017-Jan-06 17:33N 31°35' E 121°28'0 0.0
2017-Jan-06 16:33N 31°35' E 121°28'0 0.0
2017-Jan-06 15:33N 31°35' E 121°28'0 0.0
2017-Jan-06 14:33N 31°35' E 121°28'0 0.0
2017-Jan-06 13:33N 31°35' E 121°28'0 0.0
2017-Jan-06 12:33N 31°35' E 121°28'0 0.0
2017-Jan-06 11:33N 31°35' E 121°28'0 0.0
2017-Jan-06 10:33N 31°35' E 121°28'0 0.0
2017-Jan-06 09:33N 31°35' E 121°28'0 0.0
2017-Jan-06 08:33N 31°35' E 121°28'  

Dump ship's entire track history